Terminal Aerodrome Forecast
Issued by NWS

Home | Current Version | Previous Version | Text Only | Print | Product List | Glossary On
Versions: 1 2 3 4 5 6 7 8 9 10 11 12 13 14 15 16 17 18 19 20 21 22 23 24
000
FTAK31 PAFG 202334
TAFABT
TAF
PABT 202334Z 2100/2124 VRB04KT 6SM -RA BR SCT015 BKN025 OVC035
     FM210300 33006KT 4SM -RA BR BKN015 OVC025
     FM210600 30006KT 2SM -RA BR BKN007 OVC015
     FM211200 27006KT 6SM -RASN BR SCT007 BKN015 OVC025
     FM211500 27006KT P6SM VCSH SCT015 BKN025 OVC035=

USA.gov is the U.S. government's official web portal to all federal, state and local government web resources and services.